createdAt,value
2024-02-04T00:01:44.204Z,9.40
2024-02-04T00:04:17.931Z,9.10
2024-02-04T00:06:49.408Z,9.40
2024-02-04T00:09:16.228Z,9.30
2024-02-04T00:11:43.070Z,9.10
2024-02-04T00:14:12.419Z,9.30
2024-02-04T00:16:39.289Z,9.30
2024-02-04T00:19:06.086Z,9.60
2024-02-04T00:21:37.579Z,9.30
2024-02-04T00:24:06.984Z,10.50
2024-02-04T00:26:38.445Z,9.50
2024-02-04T00:29:05.168Z,9.50
2024-02-04T00:31:31.903Z,9.30
2024-02-04T00:34:02.022Z,9.50
2024-02-04T00:36:28.799Z,10.40
2024-02-04T00:38:55.573Z,9.30
2024-02-04T00:41:24.742Z,9.40
2024-02-04T00:43:53.834Z,9.60
2024-02-04T00:46:20.647Z,9.40
2024-02-04T00:48:50.251Z,9.40
2024-02-04T00:51:18.388Z,9.30
2024-02-04T00:53:47.944Z,9.70
2024-02-04T00:56:17.165Z,9.40
2024-02-04T00:58:46.393Z,9.50
2024-02-04T01:01:13.637Z,9.30
2024-02-04T01:03:40.480Z,9.40
2024-02-04T01:06:07.407Z,9.30
2024-02-04T01:08:38.567Z,9.30
2024-02-04T01:11:08.538Z,10.30
2024-02-04T01:13:35.537Z,9.30
2024-02-04T01:16:02.463Z,9.30
2024-02-04T01:18:32.790Z,9.30
2024-02-04T01:21:01.448Z,9.40
2024-02-04T01:23:30.603Z,9.30
2024-02-04T01:25:59.832Z,9.20
2024-02-04T01:28:31.816Z,9.10
2024-02-04T01:31:00.732Z,9.20
2024-02-04T01:33:27.655Z,10.00
2024-02-04T01:35:54.537Z,9.10
2024-02-04T01:38:21.232Z,9.00
2024-02-04T01:40:52.423Z,9.40
2024-02-04T01:43:22.324Z,9.00
2024-02-04T01:45:54.056Z,9.30
2024-02-04T01:48:23.460Z,9.20
2024-02-04T01:50:56.155Z,9.20
2024-02-04T01:53:24.572Z,9.10
2024-02-04T01:55:51.387Z,9.00
2024-02-04T01:58:18.794Z,9.10
2024-02-04T02:00:46.550Z,9.00
2024-02-04T02:03:14.312Z,8.90
2024-02-04T02:05:41.738Z,8.90
2024-02-04T02:08:08.958Z,8.90
2024-02-04T02:10:38.549Z,8.90
2024-02-04T02:13:15.356Z,9.00
2024-02-04T02:15:47.883Z,8.90
2024-02-04T02:18:22.651Z,8.90
2024-02-04T02:20:57.040Z,8.90
2024-02-04T02:23:35.174Z,8.80
2024-02-04T02:26:03.362Z,8.90
2024-02-04T02:28:35.096Z,8.90
2024-02-04T02:31:04.531Z,8.90
2024-02-04T02:33:33.313Z,8.90
2024-02-04T02:36:03.623Z,9.00
2024-02-04T02:38:36.682Z,9.00
2024-02-04T02:41:11.705Z,9.00
2024-02-04T02:43:41.827Z,9.10
2024-02-04T02:46:11.411Z,9.00
2024-02-04T02:48:43.038Z,8.90
2024-02-04T02:51:12.108Z,8.90
2024-02-04T02:53:41.372Z,8.70
2024-02-04T02:56:08.392Z,8.80
2024-02-04T02:58:37.674Z,8.90
2024-02-04T03:01:04.621Z,8.90
2024-02-04T03:03:31.567Z,8.90
2024-02-04T03:05:58.442Z,8.90
2024-02-04T03:08:27.694Z,9.00
2024-02-04T03:10:56.595Z,8.90
2024-02-04T03:13:23.299Z,9.20
2024-02-04T03:15:50.395Z,8.80
2024-02-04T03:18:17.204Z,9.10
2024-02-04T03:20:43.906Z,8.80
2024-02-04T03:23:12.931Z,8.90
2024-02-04T03:25:41.799Z,10.70
2024-02-04T03:28:08.916Z,8.80
2024-02-04T03:30:35.664Z,8.90
2024-02-04T03:33:02.494Z,8.90
2024-02-04T03:35:31.515Z,8.80
2024-02-04T03:40:25.869Z,8.80
2024-02-04T03:42:54.915Z,8.90
2024-02-04T03:45:21.793Z,8.90
2024-02-04T03:47:48.639Z,8.70
2024-02-04T03:50:15.413Z,8.60
2024-02-04T03:52:45.023Z,8.90
2024-02-04T03:55:14.316Z,8.90
2024-02-04T03:57:41.179Z,9.10
2024-02-04T04:00:09.160Z,8.80
2024-02-04T04:02:35.857Z,8.80
2024-02-04T04:05:06.069Z,10.30
2024-02-04T04:07:35.259Z,8.90
2024-02-04T04:10:02.173Z,8.90
2024-02-04T04:12:31.160Z,8.90
2024-02-04T04:14:57.871Z,8.80
2024-02-04T04:19:54.198Z,8.80
2024-02-04T04:22:21.023Z,8.90
2024-02-04T04:24:50.153Z,8.90
2024-02-04T04:27:19.456Z,8.80
2024-02-04T04:29:46.138Z,9.10
2024-02-04T04:32:12.863Z,8.90
2024-02-04T04:37:09.470Z,8.80
2024-02-04T04:39:38.440Z,8.80
2024-02-04T04:42:05.342Z,8.80
2024-02-04T04:44:32.077Z,8.70
2024-02-04T04:47:01.027Z,9.80
2024-02-04T04:49:30.099Z,8.80
2024-02-04T04:51:56.963Z,8.70
2024-02-04T04:54:24.029Z,8.80
2024-02-04T04:56:50.829Z,8.60
2024-02-04T04:59:18.016Z,8.60
2024-02-04T05:01:49.027Z,8.60
2024-02-04T05:04:22.292Z,8.70
2024-02-04T05:06:53.903Z,8.60
2024-02-04T05:09:20.735Z,8.60
2024-02-04T05:11:47.586Z,8.80
2024-02-04T05:16:47.004Z,8.50
2024-02-04T05:21:41.672Z,8.50
2024-02-04T05:24:08.652Z,8.50
2024-02-04T05:29:04.893Z,8.40
2024-02-04T05:31:33.872Z,8.50
2024-02-04T05:34:09.058Z,8.40
2024-02-04T05:36:35.893Z,8.40
2024-02-04T05:39:16.413Z,8.40
2024-02-04T05:41:43.744Z,8.40
2024-02-04T05:44:12.984Z,8.40
2024-02-04T05:46:42.765Z,8.40
2024-02-04T05:49:12.276Z,8.40
2024-02-04T05:51:43.406Z,8.40
2024-02-04T05:54:12.373Z,8.60
2024-02-04T05:56:43.730Z,8.60
2024-02-04T05:59:12.606Z,8.40
2024-02-04T06:01:41.580Z,8.40
2024-02-04T06:04:08.599Z,8.40
2024-02-04T06:06:40.123Z,8.40
2024-02-04T06:09:07.587Z,8.30
2024-02-04T06:11:34.357Z,8.50
2024-02-04T06:14:03.551Z,8.60
2024-02-04T06:16:30.426Z,8.60
2024-02-04T06:18:59.232Z,8.60
2024-02-04T06:21:26.164Z,8.70
2024-02-04T06:23:52.909Z,8.60
2024-02-04T06:26:19.639Z,8.60
2024-02-04T06:28:47.849Z,8.60
2024-02-04T06:31:17.102Z,8.60
2024-02-04T06:33:46.343Z,8.80
2024-02-04T06:36:13.061Z,8.60
2024-02-04T06:38:42.185Z,8.60
2024-02-04T06:41:08.874Z,8.60
2024-02-04T06:43:38.525Z,8.70
2024-02-04T06:46:10.043Z,9.20
2024-02-04T06:48:36.980Z,8.70
2024-02-04T06:51:03.950Z,8.70
2024-02-04T06:53:30.684Z,8.70
2024-02-04T06:56:01.909Z,8.70
2024-02-04T06:58:29.192Z,8.80
2024-02-04T07:01:00.421Z,8.80
2024-02-04T07:03:30.286Z,8.80
2024-02-04T07:05:57.169Z,9.20
2024-02-04T07:08:23.969Z,8.80
2024-02-04T07:10:50.908Z,8.80
2024-02-04T07:13:17.740Z,8.80
2024-02-04T07:15:44.767Z,8.80
2024-02-04T07:18:11.753Z,8.80
2024-02-04T07:20:38.874Z,9.20
2024-02-04T07:23:07.864Z,8.90
2024-02-04T07:25:36.545Z,8.90
2024-02-04T07:28:06.432Z,8.90
2024-02-04T07:30:33.262Z,9.00
2024-02-04T07:33:02.158Z,9.00
2024-02-04T07:35:28.885Z,9.10
2024-02-04T07:37:55.627Z,9.00
2024-02-04T07:45:16.806Z,9.10
2024-02-04T07:47:43.544Z,9.10
2024-02-04T07:50:15.117Z,9.10
2024-02-04T07:52:45.304Z,9.10
2024-02-04T07:55:12.364Z,9.20
2024-02-04T07:57:39.107Z,10.20
2024-02-04T08:00:11.225Z,9.30
2024-02-04T08:02:41.100Z,9.30
2024-02-04T08:05:08.391Z,9.40
2024-02-04T08:07:35.593Z,9.40
2024-02-04T08:10:03.001Z,9.40
2024-02-04T08:12:29.783Z,9.50
2024-02-04T08:14:58.986Z,9.60
2024-02-04T08:17:25.937Z,9.60
2024-02-04T08:19:57.406Z,11.30
2024-02-04T08:22:26.602Z,10.80
2024-02-04T08:24:55.925Z,10.20
2024-02-04T08:27:25.386Z,9.90
2024-02-04T08:29:54.272Z,10.00
2024-02-04T08:32:25.758Z,10.10
2024-02-04T08:34:57.351Z,10.20
2024-02-04T08:37:26.504Z,10.20
2024-02-04T08:39:55.056Z,10.30
2024-02-04T08:42:21.855Z,10.30
2024-02-04T08:44:50.898Z,10.40
2024-02-04T08:47:20.264Z,10.50
2024-02-04T08:49:49.347Z,10.70
2024-02-04T08:52:16.372Z,11.10
2024-02-04T08:54:43.433Z,10.70
2024-02-04T08:57:10.652Z,10.80
2024-02-04T08:59:39.592Z,12.40
2024-02-04T09:02:11.228Z,11.00
2024-02-04T09:04:41.850Z,11.00
2024-02-04T09:07:11.519Z,11.00
2024-02-04T09:12:05.854Z,11.20
2024-02-04T09:14:33.458Z,11.20
2024-02-04T09:17:00.173Z,11.30
2024-02-04T09:19:27.046Z,11.30
2024-02-04T09:21:56.107Z,11.40
2024-02-04T09:24:22.859Z,13.20
2024-02-04T09:26:52.135Z,11.50
2024-02-04T09:29:19.289Z,12.60
2024-02-04T09:31:46.549Z,11.50
2024-02-04T09:34:13.817Z,11.90
2024-02-04T09:36:41.319Z,11.70
2024-02-04T09:39:08.985Z,12.50
2024-02-04T09:41:37.937Z,11.80
2024-02-04T09:44:08.433Z,12.60
2024-02-04T09:46:37.403Z,11.90
2024-02-04T09:49:06.158Z,11.90
2024-02-04T09:51:33.221Z,12.10
2024-02-04T09:54:07.541Z,12.20
2024-02-04T09:56:38.342Z,12.30
2024-02-04T09:59:08.188Z,13.40
2024-02-04T10:01:37.120Z,12.20
2024-02-04T10:04:09.120Z,12.30
2024-02-04T10:06:38.342Z,12.30
2024-02-04T10:09:05.329Z,12.40
2024-02-04T10:11:32.104Z,12.70
2024-02-04T10:13:58.879Z,14.10
2024-02-04T10:16:33.338Z,13.00
2024-02-04T10:21:30.081Z,14.20
2024-02-04T10:24:01.715Z,14.00
2024-02-04T10:26:36.598Z,14.30
2024-02-04T10:29:03.937Z,14.00
2024-02-04T10:31:30.864Z,14.00
2024-02-04T10:33:57.999Z,14.20
2024-02-04T10:36:24.896Z,14.20
2024-02-04T10:38:53.982Z,14.20
2024-02-04T10:41:22.004Z,14.10
2024-02-04T10:43:48.864Z,14.10
2024-02-04T10:46:20.468Z,14.60
2024-02-04T10:48:56.597Z,13.80
2024-02-04T10:51:28.597Z,14.10
2024-02-04T10:53:59.958Z,14.00
2024-02-04T10:56:42.644Z,13.70
2024-02-04T10:59:13.201Z,13.70
2024-02-04T11:01:43.222Z,13.50
2024-02-04T11:04:13.223Z,13.70
2024-02-04T11:06:44.838Z,13.60
2024-02-04T11:09:15.528Z,13.50
2024-02-04T11:11:43.219Z,13.40
2024-02-04T11:14:14.353Z,13.40
2024-02-04T11:17:07.851Z,13.70
2024-02-04T11:19:46.512Z,13.70
2024-02-04T11:22:43.333Z,13.70
2024-02-04T11:25:10.072Z,13.60
2024-02-04T11:27:37.427Z,13.80
2024-02-04T11:30:05.794Z,13.80
2024-02-04T11:32:33.006Z,13.40
2024-02-04T11:35:08.868Z,13.10
2024-02-04T11:37:43.545Z,13.20
2024-02-04T11:40:16.904Z,13.50
2024-02-04T11:42:46.280Z,13.40
2024-02-04T11:45:16.089Z,13.60
2024-02-04T11:47:43.266Z,13.90
2024-02-04T11:50:12.839Z,14.90
2024-02-04T11:52:43.137Z,13.90
2024-02-04T11:55:17.841Z,14.00
2024-02-04T11:57:47.191Z,13.80
2024-02-04T12:00:14.659Z,14.10
2024-02-04T12:02:41.412Z,13.90
2024-02-04T12:05:09.860Z,14.20
2024-02-04T12:07:42.885Z,13.90
2024-02-04T12:10:11.961Z,14.30
2024-02-04T12:12:42.689Z,14.10
2024-02-04T12:15:11.822Z,14.10
2024-02-04T12:17:38.812Z,14.30
2024-02-04T12:20:06.628Z,14.00
2024-02-04T12:22:35.929Z,13.90
2024-02-04T12:25:04.535Z,15.20
2024-02-04T12:27:31.354Z,13.70
2024-02-04T12:30:00.630Z,13.50
2024-02-04T12:32:27.591Z,13.20
2024-02-04T12:34:58.156Z,14.40
2024-02-04T12:39:54.937Z,13.60
2024-02-04T12:42:22.680Z,13.50
2024-02-04T12:44:50.051Z,13.80
2024-02-04T12:47:22.866Z,13.40
2024-02-04T12:49:49.891Z,13.30
2024-02-04T12:52:22.942Z,13.30
2024-02-04T12:54:54.087Z,13.40
2024-02-04T12:57:25.299Z,13.40
2024-02-04T13:00:04.541Z,13.30
2024-02-04T13:02:31.615Z,13.20
2024-02-04T13:05:03.117Z,13.30
2024-02-04T13:07:30.035Z,13.70
2024-02-04T13:10:02.579Z,13.40
2024-02-04T13:12:34.062Z,13.50
2024-02-04T13:15:01.013Z,13.70
2024-02-04T13:17:27.779Z,13.60
2024-02-04T13:19:56.868Z,14.30
2024-02-04T13:22:23.649Z,13.50
2024-02-04T13:24:52.564Z,13.40
2024-02-04T13:29:49.099Z,13.40
2024-02-04T13:34:50.832Z,13.30
2024-02-04T13:37:20.204Z,13.30
2024-02-04T13:39:49.159Z,13.20
2024-02-04T13:42:18.411Z,13.20
2024-02-04T13:44:47.717Z,13.00
2024-02-04T13:47:14.490Z,14.00
2024-02-04T13:49:41.274Z,12.80
2024-02-04T13:52:08.080Z,13.40
2024-02-04T13:54:34.916Z,12.80
2024-02-04T13:57:01.770Z,12.70
2024-02-04T13:59:30.613Z,12.60
2024-02-04T14:02:02.045Z,12.80
2024-02-04T14:04:31.903Z,12.60
2024-02-04T14:07:01.479Z,14.30
2024-02-04T14:09:29.081Z,13.80
2024-02-04T14:11:58.087Z,13.50
2024-02-04T14:16:54.952Z,13.10
2024-02-04T14:21:53.654Z,12.80
2024-02-04T14:24:20.452Z,12.70
2024-02-04T14:26:47.317Z,12.90
2024-02-04T14:29:14.402Z,12.60
2024-02-04T14:31:41.242Z,12.50
2024-02-04T14:34:08.055Z,12.50
2024-02-04T14:36:37.057Z,12.50
2024-02-04T14:39:06.282Z,13.60
2024-02-04T14:41:36.569Z,12.40
2024-02-04T14:44:05.803Z,12.50
2024-02-04T14:46:32.892Z,12.60
2024-02-04T14:49:00.102Z,12.60
2024-02-04T14:51:29.577Z,12.50
2024-02-04T14:53:58.600Z,13.30
2024-02-04T14:56:27.845Z,12.70
2024-02-04T14:58:56.871Z,12.60
2024-02-04T15:01:26.672Z,13.60
2024-02-04T15:03:56.107Z,12.70
2024-02-04T15:06:25.408Z,12.60
2024-02-04T15:08:54.619Z,12.30
2024-02-04T15:11:23.790Z,12.60
2024-02-04T15:13:53.794Z,12.30
2024-02-04T15:16:20.902Z,12.30
2024-02-04T15:18:53.229Z,12.30
2024-02-04T15:21:20.423Z,12.30
2024-02-04T15:23:47.790Z,12.30
2024-02-04T15:26:17.572Z,12.30
2024-02-04T15:28:49.177Z,12.30
2024-02-04T15:31:19.144Z,12.20
2024-02-04T15:33:47.467Z,12.20
2024-02-04T15:36:16.517Z,12.20
2024-02-04T15:38:43.256Z,12.20
2024-02-04T15:41:10.792Z,12.10
2024-02-04T15:43:37.516Z,12.20
2024-02-04T15:46:10.289Z,12.20
2024-02-04T15:48:41.630Z,12.10
2024-02-04T15:51:09.007Z,12.10
2024-02-04T15:53:39.060Z,12.00
2024-02-04T15:56:09.266Z,11.90
2024-02-04T15:58:39.578Z,11.90
2024-02-04T16:01:29.409Z,11.70
2024-02-04T16:03:56.634Z,11.70
2024-02-04T16:06:26.582Z,11.70
2024-02-04T16:08:53.661Z,11.60
2024-02-04T16:11:24.739Z,11.60
2024-02-04T16:13:52.843Z,11.80
2024-02-04T16:16:28.188Z,11.40
2024-02-04T16:19:00.213Z,11.50
2024-02-04T16:21:27.387Z,11.50
2024-02-04T16:23:56.976Z,11.40
2024-02-04T16:26:24.023Z,11.40
2024-02-04T16:31:18.073Z,11.40
2024-02-04T16:33:45.210Z,11.70
2024-02-04T16:36:12.152Z,10.50
2024-02-04T16:38:39.378Z,11.30
2024-02-04T16:41:11.044Z,11.20
2024-02-04T16:43:37.771Z,11.80
2024-02-04T16:46:04.706Z,11.10
2024-02-04T16:48:31.832Z,11.10
2024-02-04T16:51:01.169Z,11.10
2024-02-04T16:53:28.294Z,11.10
2024-02-04T16:55:55.258Z,11.10
2024-02-04T17:00:51.795Z,11.10
2024-02-04T17:03:18.858Z,10.90
2024-02-04T17:08:24.637Z,11.10
2024-02-04T17:10:53.344Z,11.10
2024-02-04T17:13:23.309Z,11.00
2024-02-04T17:15:52.867Z,11.10
2024-02-04T17:18:36.760Z,10.90
2024-02-04T17:21:09.574Z,10.90
2024-02-04T17:23:39.506Z,11.70
2024-02-04T17:26:08.148Z,10.70
2024-02-04T17:28:35.267Z,10.50
2024-02-04T17:31:02.410Z,10.60
2024-02-04T17:33:29.595Z,10.60
2024-02-04T17:35:56.467Z,10.60
2024-02-04T17:38:23.483Z,10.60
2024-02-04T17:40:50.195Z,10.50
2024-02-04T17:45:47.840Z,10.50
2024-02-04T17:48:17.079Z,10.40
2024-02-04T17:50:44.065Z,10.30
2024-02-04T17:53:13.855Z,11.00
2024-02-04T17:55:42.507Z,10.40
2024-02-04T17:58:10.034Z,10.40
2024-02-04T18:00:36.927Z,10.30
2024-02-04T18:03:07.359Z,10.70
2024-02-04T18:05:38.975Z,10.30
2024-02-04T18:08:08.632Z,10.30
2024-02-04T18:10:37.734Z,10.20
2024-02-04T18:13:04.806Z,10.30
2024-02-04T18:15:31.998Z,10.20
2024-02-04T18:18:01.440Z,10.70
2024-02-04T18:20:28.731Z,9.50
2024-02-04T18:22:58.089Z,10.50
2024-02-04T18:25:25.026Z,10.70
2024-02-04T18:27:51.797Z,10.00
2024-02-04T18:30:23.939Z,10.30
2024-02-04T18:32:50.644Z,10.10
2024-02-04T18:35:17.493Z,10.10
2024-02-04T18:37:44.341Z,9.90
2024-02-04T18:40:11.829Z,10.00
2024-02-04T18:42:39.914Z,10.10
2024-02-04T18:45:07.678Z,10.00
2024-02-04T18:47:34.729Z,10.00
2024-02-04T18:50:04.245Z,10.30
2024-02-04T18:52:34.462Z,10.00
2024-02-04T18:55:01.298Z,9.90
2024-02-04T18:57:29.410Z,11.00
2024-02-04T19:00:01.343Z,9.90
2024-02-04T19:02:28.033Z,9.80
2024-02-04T19:04:54.972Z,9.70
2024-02-04T19:07:21.847Z,9.70
2024-02-04T19:09:55.865Z,9.70
2024-02-04T19:12:25.387Z,9.70
2024-02-04T19:14:52.133Z,9.80
2024-02-04T19:17:21.425Z,10.20
2024-02-04T19:19:50.840Z,9.70
2024-02-04T19:22:19.893Z,11.30
2024-02-04T19:24:48.949Z,9.70
2024-02-04T19:27:18.173Z,9.70
2024-02-04T19:29:45.213Z,10.30
2024-02-04T19:32:12.053Z,9.60
2024-02-04T19:34:44.517Z,11.00
2024-02-04T19:37:11.322Z,9.60
2024-02-04T19:39:40.932Z,9.50
2024-02-04T19:42:08.665Z,10.90
2024-02-04T19:44:37.859Z,9.40
2024-02-04T19:47:04.818Z,9.50
2024-02-04T19:49:31.706Z,9.50
2024-02-04T19:52:03.385Z,9.40
2024-02-04T19:54:30.790Z,9.90
2024-02-04T19:57:09.916Z,9.40
2024-02-04T19:59:39.078Z,9.40
2024-02-04T20:02:07.776Z,9.30
2024-02-04T20:04:36.936Z,9.30
2024-02-04T20:07:04.847Z,10.70
2024-02-04T20:09:35.086Z,9.30
2024-02-04T20:12:04.413Z,9.20
2024-02-04T20:14:35.757Z,9.30
2024-02-04T20:17:02.478Z,9.40
2024-02-04T20:19:29.204Z,9.20
2024-02-04T20:21:55.982Z,9.20
2024-02-04T20:24:23.023Z,9.80
2024-02-04T20:26:49.893Z,9.10
2024-02-04T20:29:19.092Z,9.10
2024-02-04T20:31:50.960Z,9.80
2024-02-04T20:34:18.288Z,10.60
2024-02-04T20:36:50.827Z,10.00
2024-02-04T20:39:19.214Z,8.90
2024-02-04T20:41:47.741Z,8.80
2024-02-04T20:44:17.452Z,9.40
2024-02-04T20:46:46.663Z,8.90
2024-02-04T20:49:13.440Z,8.80
2024-02-04T20:51:42.911Z,10.60
2024-02-04T20:54:10.523Z,9.20
2024-02-04T20:56:39.532Z,8.80
2024-02-04T20:59:06.425Z,8.50
2024-02-04T21:01:33.182Z,8.80
2024-02-04T21:04:00.060Z,9.50
2024-02-04T21:06:32.148Z,8.60
2024-02-04T21:09:01.518Z,8.90
2024-02-04T21:11:29.056Z,8.20
2024-02-04T21:16:24.176Z,8.90
2024-02-04T21:18:51.959Z,9.60
2024-02-04T21:21:20.984Z,8.80
2024-02-04T21:23:47.796Z,8.90
2024-02-04T21:26:14.585Z,9.00
2024-02-04T21:28:41.349Z,8.70
2024-02-04T21:31:11.326Z,8.70
2024-02-04T21:33:40.463Z,8.60
2024-02-04T21:36:13.744Z,8.60
2024-02-04T21:38:43.102Z,8.70
2024-02-04T21:41:17.441Z,8.60
2024-02-04T21:43:44.121Z,8.50
2024-02-04T21:46:13.278Z,8.50
2024-02-04T21:48:42.309Z,8.50
2024-02-04T21:51:09.063Z,8.40
2024-02-04T21:53:35.868Z,8.50
2024-02-04T21:56:05.120Z,8.50
2024-02-04T21:58:34.731Z,8.50
2024-02-04T22:01:04.029Z,8.50
2024-02-04T22:03:30.823Z,8.50
2024-02-04T22:05:57.687Z,8.80
2024-02-04T22:08:24.758Z,8.70
2024-02-04T22:10:53.936Z,8.50
2024-02-04T22:13:20.846Z,8.40
2024-02-04T22:15:50.269Z,8.80
2024-02-04T22:18:19.565Z,8.30
2024-02-04T22:20:48.609Z,8.60
2024-02-04T22:25:45.027Z,8.40
2024-02-04T22:28:14.439Z,8.30
2024-02-04T22:30:44.000Z,9.00
2024-02-04T22:33:13.140Z,8.40
2024-02-04T22:35:41.995Z,8.40
2024-02-04T22:38:10.388Z,8.00
2024-02-04T22:40:37.118Z,8.40
2024-02-04T22:43:04.117Z,8.40
2024-02-04T22:45:33.957Z,8.40
2024-02-04T22:48:03.546Z,8.30
2024-02-04T22:52:59.706Z,8.40
2024-02-04T22:55:26.437Z,8.30
2024-02-04T22:57:53.227Z,8.40
2024-02-04T23:00:29.818Z,8.40
2024-02-04T23:02:57.036Z,8.90
2024-02-04T23:05:23.843Z,8.40
2024-02-04T23:07:52.499Z,8.40
2024-02-04T23:10:20.356Z,8.40
2024-02-04T23:12:47.229Z,8.40
2024-02-04T23:15:16.530Z,8.40
2024-02-04T23:17:45.990Z,8.40
2024-02-04T23:20:12.953Z,8.30
2024-02-04T23:22:39.790Z,8.40
2024-02-04T23:25:06.991Z,9.00
2024-02-04T23:27:34.166Z,8.30
2024-02-04T23:30:01.023Z,8.30
2024-02-04T23:32:27.800Z,8.30
2024-02-04T23:34:55.562Z,8.10
2024-02-04T23:37:22.400Z,8.50
2024-02-04T23:39:49.294Z,8.40
2024-02-04T23:42:16.075Z,8.40
2024-02-04T23:44:44.937Z,8.40
2024-02-04T23:47:13.088Z,8.40
2024-02-04T23:49:41.118Z,8.50
2024-02-04T23:52:08.481Z,8.50
2024-02-04T23:54:35.481Z,8.50
2024-02-04T23:57:05.772Z,8.60
2024-02-04T23:59:32.561Z,8.50
